createdAt,value
2023-09-11T00:00:12.686Z,8.67
2023-09-11T00:02:44.449Z,6.57
2023-09-11T00:05:16.105Z,7.35
2023-09-11T00:07:47.700Z,7.20
2023-09-11T00:10:19.301Z,6.45
2023-09-11T00:12:50.991Z,7.05
2023-09-11T00:15:22.664Z,7.85
2023-09-11T00:17:54.246Z,9.35
2023-09-11T00:20:25.978Z,11.27
2023-09-11T00:22:57.562Z,6.72
2023-09-11T00:25:30.029Z,6.07
2023-09-11T00:28:01.929Z,6.82
2023-09-11T00:30:33.658Z,7.78
2023-09-11T00:33:06.044Z,6.28
2023-09-11T00:35:37.853Z,6.55
2023-09-11T00:38:09.378Z,6.50
2023-09-11T00:40:40.957Z,5.50
2023-09-11T00:43:12.506Z,5.65
2023-09-11T00:45:44.290Z,9.30
2023-09-11T00:48:15.970Z,6.75
2023-09-11T00:50:48.163Z,8.07
2023-09-11T00:58:24.707Z,5.65
2023-09-11T01:03:28.234Z,10.75
2023-09-11T01:06:00.497Z,8.93
2023-09-11T01:08:32.639Z,7.38
2023-09-11T01:13:35.694Z,8.70
2023-09-11T01:16:18.566Z,8.93
2023-09-11T01:18:55.381Z,8.30
2023-09-11T01:21:33.386Z,5.70
2023-09-11T01:24:25.691Z,8.50
2023-09-11T01:26:57.207Z,6.78
2023-09-11T01:29:34.395Z,7.30
2023-09-11T01:32:07.059Z,8.68
2023-09-11T01:34:38.766Z,7.63
2023-09-11T01:37:10.335Z,6.20
2023-09-11T01:39:42.023Z,8.13
2023-09-11T01:42:20.097Z,10.23
2023-09-11T01:44:53.175Z,7.50
2023-09-11T01:47:26.355Z,7.70
2023-09-11T01:49:59.559Z,6.85
2023-09-11T01:52:32.556Z,7.35
2023-09-11T01:55:04.768Z,6.30
2023-09-11T01:57:36.460Z,10.15
2023-09-11T02:00:09.461Z,7.13
2023-09-11T02:02:41.226Z,6.03
2023-09-11T02:05:13.007Z,6.97
2023-09-11T02:07:44.569Z,7.45
2023-09-11T02:10:17.169Z,6.78
2023-09-11T02:12:48.803Z,9.73
2023-09-11T02:15:20.345Z,6.95
2023-09-11T02:17:52.043Z,8.18
2023-09-11T02:20:23.683Z,8.52
2023-09-11T02:22:55.293Z,9.55
2023-09-11T02:25:27.268Z,6.45
2023-09-11T02:30:30.256Z,6.50
2023-09-11T02:33:01.862Z,7.90
2023-09-11T02:35:33.605Z,6.78
2023-09-11T02:38:05.336Z,5.45
2023-09-11T02:40:38.225Z,9.00
2023-09-11T02:43:09.814Z,8.52
2023-09-11T02:45:45.136Z,7.82
2023-09-11T02:48:16.813Z,7.72
2023-09-11T02:50:48.517Z,7.10
2023-09-11T02:53:20.947Z,8.65
2023-09-11T02:55:52.889Z,6.40
2023-09-11T02:58:25.019Z,7.70
2023-09-11T03:01:04.606Z,7.57
2023-09-11T03:03:36.327Z,12.73
2023-09-11T03:06:07.951Z,7.32
2023-09-11T03:08:39.902Z,9.30
2023-09-11T03:13:43.116Z,8.10
2023-09-11T03:16:16.386Z,6.38
2023-09-11T03:18:48.348Z,6.05
2023-09-11T03:21:19.884Z,7.00
2023-09-11T03:23:51.484Z,10.35
2023-09-11T03:26:23.038Z,6.55
2023-09-11T03:28:55.143Z,6.80
2023-09-11T03:33:58.318Z,6.80
2023-09-11T03:36:30.057Z,7.40
2023-09-11T03:39:01.691Z,7.18
2023-09-11T03:41:34.041Z,9.80
2023-09-11T03:44:05.877Z,11.50
2023-09-11T03:46:37.412Z,7.97
2023-09-11T03:49:09.101Z,11.02
2023-09-11T03:51:40.695Z,6.95
2023-09-11T03:54:12.196Z,8.50
2023-09-11T03:56:43.817Z,10.38
2023-09-11T03:59:15.384Z,8.23
2023-09-11T04:01:46.952Z,9.02
2023-09-11T04:04:18.552Z,7.43
2023-09-11T04:06:50.204Z,10.27
2023-09-11T04:09:21.729Z,10.15
2023-09-11T04:11:53.382Z,7.75
2023-09-11T04:14:24.978Z,8.32
2023-09-11T04:16:57.332Z,8.35
2023-09-11T04:19:28.932Z,12.43
2023-09-11T04:22:00.523Z,7.75
2023-09-11T04:24:32.667Z,8.55
2023-09-11T04:29:36.121Z,9.60
2023-09-11T04:32:07.880Z,9.85
2023-09-11T04:34:39.462Z,8.75
2023-09-11T04:37:10.996Z,10.38
2023-09-11T04:39:42.583Z,10.88
2023-09-11T04:42:14.202Z,7.15
2023-09-11T04:44:46.584Z,8.00
2023-09-11T04:47:18.143Z,8.00
2023-09-11T04:49:49.676Z,7.47
2023-09-11T04:52:21.185Z,8.13
2023-09-11T04:54:53.425Z,8.38
2023-09-11T04:57:25.022Z,10.32
2023-09-11T04:59:56.655Z,8.60
2023-09-11T05:02:28.328Z,10.05
2023-09-11T05:04:59.949Z,7.95
2023-09-11T05:07:31.953Z,8.73
2023-09-11T05:12:38.040Z,9.20
2023-09-11T05:15:10.220Z,11.52
2023-09-11T05:17:42.233Z,8.77
2023-09-11T05:20:14.005Z,14.18
2023-09-11T05:22:45.519Z,10.15
2023-09-11T05:25:17.145Z,8.63
2023-09-11T05:27:49.161Z,8.95
2023-09-11T05:32:54.540Z,9.23
2023-09-11T05:35:26.282Z,15.85
2023-09-11T05:37:57.846Z,10.18
2023-09-11T05:40:29.450Z,10.13
2023-09-11T05:43:01.011Z,9.07
2023-09-11T05:45:32.548Z,7.80
2023-09-11T05:48:04.316Z,9.85
2023-09-11T05:50:35.974Z,8.13
2023-09-11T05:53:08.085Z,10.32
2023-09-11T05:58:11.214Z,8.27
2023-09-11T06:00:43.342Z,8.85
2023-09-11T06:03:14.999Z,17.90
2023-09-11T06:05:46.659Z,32.13
2023-09-11T06:08:18.922Z,26.55
2023-09-11T06:10:50.464Z,19.73
2023-09-11T06:13:22.032Z,11.98
2023-09-11T06:15:53.660Z,10.65
2023-09-11T06:18:25.291Z,8.73
2023-09-11T06:20:57.029Z,9.23
2023-09-11T06:23:28.774Z,10.45
2023-09-11T06:26:00.353Z,8.82
2023-09-11T06:28:31.891Z,9.65
2023-09-11T06:31:03.525Z,9.35
2023-09-11T06:33:35.564Z,9.82
2023-09-11T06:36:07.313Z,8.18
2023-09-11T06:38:39.627Z,9.73
2023-09-11T06:41:11.545Z,9.90
2023-09-11T06:43:44.030Z,12.02
2023-09-11T06:46:16.073Z,10.82
2023-09-11T06:51:19.620Z,9.48
2023-09-11T06:53:51.242Z,8.60
2023-09-11T06:56:22.767Z,8.68
2023-09-11T06:58:54.349Z,13.23
2023-09-11T07:01:25.920Z,8.70
2023-09-11T07:03:57.640Z,9.23
2023-09-11T07:06:29.343Z,8.75
2023-09-11T07:09:00.997Z,8.88
2023-09-11T07:11:32.691Z,8.32
2023-09-11T07:14:06.486Z,13.80
2023-09-11T07:16:38.062Z,8.82
2023-09-11T07:19:09.620Z,13.25
2023-09-11T07:21:42.710Z,11.57
2023-09-11T07:24:14.302Z,8.50
2023-09-11T07:26:45.848Z,9.70
2023-09-11T07:29:17.443Z,8.25
2023-09-11T07:31:49.065Z,17.80
2023-09-11T07:34:20.693Z,12.82
2023-09-11T07:36:52.309Z,14.63
2023-09-11T07:39:24.204Z,12.38
2023-09-11T07:41:58.224Z,13.27
2023-09-11T07:44:30.056Z,9.45
2023-09-11T07:47:01.791Z,10.32
2023-09-11T07:49:33.534Z,11.27
2023-09-11T07:52:05.358Z,12.65
2023-09-11T07:54:36.891Z,8.57
2023-09-11T07:57:08.477Z,12.27
2023-09-11T07:59:40.590Z,19.17
2023-09-11T08:02:12.268Z,10.65
2023-09-11T08:04:43.893Z,12.98
2023-09-11T08:07:15.533Z,13.57
2023-09-11T08:09:47.774Z,15.40
2023-09-11T08:12:19.533Z,11.05
2023-09-11T08:14:51.084Z,19.13
2023-09-11T08:17:22.826Z,8.93
2023-09-11T08:19:54.364Z,13.02
2023-09-11T08:22:25.968Z,19.30
2023-09-11T08:24:57.567Z,9.13
2023-09-11T08:27:29.248Z,17.85
2023-09-11T08:30:00.838Z,14.43
2023-09-11T08:32:35.175Z,11.68
2023-09-11T08:35:07.112Z,12.65
2023-09-11T08:37:38.689Z,11.43
2023-09-11T08:40:10.524Z,10.00
2023-09-11T08:45:13.582Z,13.00
2023-09-11T08:47:46.307Z,10.98
2023-09-11T08:50:20.094Z,10.40
2023-09-11T08:52:54.625Z,13.02
2023-09-11T08:55:28.867Z,11.02
2023-09-11T08:58:12.308Z,15.60
2023-09-11T09:00:43.953Z,10.63
2023-09-11T09:03:17.411Z,11.57
2023-09-11T09:05:49.138Z,9.95
2023-09-11T09:08:21.660Z,9.32
2023-09-11T09:10:54.374Z,7.28
2023-09-11T09:13:26.058Z,13.98
2023-09-11T09:15:57.615Z,14.27
2023-09-11T09:18:29.930Z,7.95
2023-09-11T09:21:02.560Z,8.57
2023-09-11T09:23:37.645Z,11.23
2023-09-11T09:26:11.181Z,7.30
2023-09-11T09:28:48.629Z,12.00
2023-09-11T09:31:29.438Z,8.82
2023-09-11T09:34:01.154Z,13.95
2023-09-11T09:39:05.000Z,5.55
2023-09-11T09:41:36.560Z,7.07
2023-09-11T09:44:08.258Z,7.03
2023-09-11T09:46:42.986Z,7.65
2023-09-11T09:49:15.555Z,13.30
2023-09-11T09:51:47.416Z,5.30
2023-09-11T09:54:19.230Z,10.65
2023-09-11T09:56:50.975Z,5.53
2023-09-11T10:01:57.027Z,12.65
2023-09-11T10:07:00.708Z,9.88
2023-09-11T10:09:32.635Z,5.63
2023-09-11T10:12:05.647Z,5.47
2023-09-11T10:14:37.234Z,7.15
2023-09-11T10:17:09.060Z,6.78
2023-09-11T10:19:40.912Z,6.32
2023-09-11T10:22:12.423Z,6.28
2023-09-11T10:24:43.998Z,10.80
2023-09-11T10:27:15.630Z,5.93
2023-09-11T10:32:27.541Z,10.82
2023-09-11T10:35:00.412Z,8.70
2023-09-11T10:37:33.366Z,7.90
2023-09-11T10:40:07.273Z,6.05
2023-09-11T10:42:42.484Z,9.13
2023-09-11T10:45:30.737Z,7.30
2023-09-11T10:48:05.290Z,6.35
2023-09-11T10:50:38.741Z,9.02
2023-09-11T10:53:10.971Z,10.52
2023-09-11T10:55:42.619Z,7.70
2023-09-11T11:00:45.859Z,6.15
2023-09-11T11:05:49.351Z,6.53
2023-09-11T11:08:21.561Z,9.10
2023-09-11T11:10:57.072Z,6.82
2023-09-11T11:13:28.842Z,11.25
2023-09-11T11:16:24.520Z,6.05
2023-09-11T11:18:56.233Z,8.23
2023-09-11T11:21:39.592Z,7.18
2023-09-11T11:24:11.263Z,6.95
2023-09-11T11:29:15.981Z,7.93
2023-09-11T11:31:51.713Z,6.88
2023-09-11T11:34:33.175Z,5.95
2023-09-11T11:37:05.997Z,9.00
2023-09-11T11:39:38.340Z,5.45
2023-09-11T11:42:10.848Z,7.28
2023-09-11T11:44:42.626Z,5.40
2023-09-11T11:47:15.118Z,6.60
2023-09-11T11:49:48.195Z,5.30
2023-09-11T11:52:22.013Z,5.45
2023-09-11T11:54:53.676Z,4.70
2023-09-11T11:59:56.842Z,6.38
2023-09-11T12:02:28.484Z,6.57
2023-09-11T12:07:33.310Z,6.28
2023-09-11T12:10:06.293Z,6.50
2023-09-11T12:12:41.906Z,5.82
2023-09-11T12:15:13.541Z,5.85
2023-09-11T12:17:50.325Z,5.05
2023-09-11T12:20:23.808Z,7.00
2023-09-11T12:22:55.370Z,5.28
2023-09-11T12:28:00.359Z,6.50
2023-09-11T12:30:32.082Z,4.63
2023-09-11T12:33:09.508Z,6.80
2023-09-11T12:35:42.983Z,6.25
2023-09-11T12:38:14.819Z,6.15
2023-09-11T12:40:49.319Z,4.40
2023-09-11T12:43:22.458Z,6.32
2023-09-11T12:45:54.358Z,6.13
2023-09-11T12:48:26.383Z,4.72
2023-09-11T12:50:58.440Z,5.70
2023-09-11T12:53:30.247Z,5.10
2023-09-11T12:56:02.418Z,4.53
2023-09-11T12:58:37.816Z,5.82
2023-09-11T13:01:12.917Z,5.65
2023-09-11T13:03:47.201Z,5.97
2023-09-11T13:06:19.498Z,6.57
2023-09-11T13:08:54.884Z,5.90
2023-09-11T13:11:26.834Z,4.68
2023-09-11T13:14:13.900Z,6.53
2023-09-11T13:16:46.958Z,5.88
2023-09-11T13:19:18.798Z,5.35
2023-09-11T13:21:51.313Z,5.88
2023-09-11T13:24:23.051Z,13.77
2023-09-11T13:26:54.785Z,4.88
2023-09-11T13:29:26.417Z,4.82
2023-09-11T13:31:58.011Z,4.40
2023-09-11T13:34:32.481Z,5.22
2023-09-11T13:37:04.194Z,7.03
2023-09-11T13:39:35.729Z,11.80
2023-09-11T13:44:39.258Z,4.35
2023-09-11T13:47:10.903Z,6.38
2023-09-11T13:49:42.417Z,9.82
2023-09-11T13:52:15.713Z,4.57
2023-09-11T13:54:47.934Z,7.28
2023-09-11T13:57:19.706Z,4.93
2023-09-11T13:59:51.493Z,5.88
2023-09-11T14:02:23.145Z,5.90
2023-09-11T14:04:55.858Z,5.53
2023-09-11T14:07:27.473Z,4.22
2023-09-11T14:09:59.130Z,5.03
2023-09-11T14:12:30.993Z,8.88
2023-09-11T14:15:02.835Z,3.83
2023-09-11T14:17:34.534Z,4.63
2023-09-11T14:20:08.853Z,5.20
2023-09-11T14:22:42.325Z,5.25
2023-09-11T14:25:13.933Z,4.57
2023-09-11T14:27:45.445Z,7.32
2023-09-11T14:30:17.213Z,6.55
2023-09-11T14:32:48.990Z,4.85
2023-09-11T14:35:20.681Z,5.47
2023-09-11T14:37:52.242Z,6.57
2023-09-11T14:40:23.807Z,8.30
2023-09-11T14:42:55.414Z,5.57
2023-09-11T14:45:27.100Z,5.78
2023-09-11T14:47:58.798Z,5.57
2023-09-11T14:50:30.341Z,7.82
2023-09-11T14:53:01.904Z,5.65
2023-09-11T14:55:33.439Z,6.32
2023-09-11T14:58:05.036Z,5.60
2023-09-11T15:00:36.651Z,5.32
2023-09-11T15:03:08.340Z,5.40
2023-09-11T15:05:40.013Z,5.63
2023-09-11T15:08:13.697Z,4.97
2023-09-11T15:10:47.195Z,5.13
2023-09-11T15:13:18.795Z,4.78
2023-09-11T15:15:50.379Z,10.02
2023-09-11T15:18:22.244Z,5.32
2023-09-11T15:20:54.532Z,5.60
2023-09-11T15:23:26.101Z,4.72
2023-09-11T15:25:57.680Z,6.78
2023-09-11T15:28:29.263Z,5.57
2023-09-11T15:31:00.789Z,5.93
2023-09-11T15:33:32.425Z,8.75
2023-09-11T15:36:05.434Z,5.40
2023-09-11T15:38:42.052Z,9.13
2023-09-11T15:41:13.946Z,5.53
2023-09-11T15:43:47.506Z,5.82
2023-09-11T15:46:35.069Z,6.70
2023-09-11T15:49:12.544Z,6.05
2023-09-11T15:51:44.626Z,5.60
2023-09-11T15:54:16.229Z,5.60
2023-09-11T15:56:47.862Z,6.45
2023-09-11T15:59:19.422Z,5.72
2023-09-11T16:01:51.020Z,5.63
2023-09-11T16:04:22.910Z,5.22
2023-09-11T16:06:54.734Z,5.25
2023-09-11T16:09:27.503Z,8.05
2023-09-11T16:12:00.329Z,6.55
2023-09-11T16:14:32.104Z,6.85
2023-09-11T16:17:03.929Z,5.03
2023-09-11T16:19:35.609Z,6.40
2023-09-11T16:22:07.142Z,8.73
2023-09-11T16:24:38.740Z,5.10
2023-09-11T16:27:11.700Z,5.25
2023-09-11T16:29:43.457Z,7.30
2023-09-11T16:32:15.095Z,6.50
2023-09-11T16:34:46.744Z,5.28
2023-09-11T16:37:18.292Z,9.07
2023-09-11T16:39:49.862Z,12.75
2023-09-11T16:42:21.533Z,8.82
2023-09-11T16:44:53.866Z,8.00
2023-09-11T16:47:28.842Z,5.55
2023-09-11T16:50:00.554Z,10.32
2023-09-11T16:52:32.478Z,8.65
2023-09-11T16:55:05.396Z,8.82
2023-09-11T16:57:37.050Z,6.05
2023-09-11T17:00:09.125Z,12.45
2023-09-11T17:02:40.812Z,8.25
2023-09-11T17:05:12.488Z,8.73
2023-09-11T17:07:44.047Z,5.53
2023-09-11T17:10:15.753Z,5.22
2023-09-11T17:12:47.281Z,6.13
2023-09-11T17:17:50.484Z,8.18
2023-09-11T17:20:23.956Z,6.68
2023-09-11T17:22:55.456Z,5.70
2023-09-11T17:27:58.492Z,6.88
2023-09-11T17:30:30.308Z,13.60
2023-09-11T17:33:02.161Z,8.77
2023-09-11T17:35:35.670Z,11.68
2023-09-11T17:38:07.605Z,8.45
2023-09-11T17:40:39.317Z,12.43
2023-09-11T17:43:11.002Z,12.32
2023-09-11T17:48:14.669Z,13.10
2023-09-11T17:50:53.417Z,7.82
2023-09-11T17:53:25.112Z,9.27
2023-09-11T17:56:00.797Z,7.20
2023-09-11T17:58:32.597Z,10.68
2023-09-11T18:01:04.267Z,11.82
2023-09-11T18:06:07.782Z,9.90
2023-09-11T18:08:39.640Z,15.98
2023-09-11T18:11:11.545Z,23.58
2023-09-11T18:16:15.862Z,42.90
2023-09-11T18:21:19.159Z,72.22
2023-09-11T18:26:22.959Z,55.03
2023-09-11T18:28:54.497Z,47.75
2023-09-11T18:31:26.149Z,36.53
2023-09-11T18:33:58.016Z,30.23
2023-09-11T18:36:29.776Z,22.95
2023-09-11T18:39:02.525Z,23.58
2023-09-11T18:41:34.525Z,22.10
2023-09-11T18:44:06.192Z,19.17
2023-09-11T18:46:38.673Z,17.60
2023-09-11T18:49:10.347Z,15.75
2023-09-11T18:54:16.601Z,17.23
2023-09-11T18:56:48.284Z,20.77
2023-09-11T18:59:19.900Z,15.18
2023-09-11T19:01:51.758Z,12.57
2023-09-11T19:06:56.693Z,13.95
2023-09-11T19:09:28.414Z,16.35
2023-09-11T19:14:31.734Z,11.13
2023-09-11T19:17:05.718Z,13.20
2023-09-11T19:19:37.808Z,12.70
2023-09-11T19:22:10.856Z,15.35
2023-09-11T19:24:42.932Z,12.48
2023-09-11T19:27:15.245Z,14.10
2023-09-11T19:29:46.884Z,17.52
2023-09-11T19:32:18.628Z,11.88
2023-09-11T19:34:50.549Z,10.43
2023-09-11T19:39:55.943Z,10.95
2023-09-11T19:42:27.722Z,9.30
2023-09-11T19:47:32.695Z,10.68
2023-09-11T19:50:04.682Z,9.30
2023-09-11T19:55:07.930Z,7.37
2023-09-11T20:00:12.098Z,8.55
2023-09-11T20:02:43.742Z,12.35
2023-09-11T20:05:16.292Z,10.68
2023-09-11T20:07:47.994Z,7.85
2023-09-11T20:10:19.728Z,10.18
2023-09-11T20:12:52.419Z,9.75
2023-09-11T20:15:24.366Z,13.73
2023-09-11T20:17:56.045Z,8.27
2023-09-11T20:20:27.932Z,12.30
2023-09-11T20:25:32.448Z,8.90
2023-09-11T20:28:04.743Z,14.82
2023-09-11T20:33:11.131Z,16.15
2023-09-11T20:35:44.118Z,9.07
2023-09-11T20:38:21.414Z,7.25
2023-09-11T20:40:53.604Z,7.93
2023-09-11T20:43:25.189Z,15.02
2023-09-11T20:45:56.820Z,8.20
2023-09-11T20:48:29.674Z,6.85
2023-09-11T20:51:01.345Z,7.15
2023-09-11T20:53:32.881Z,7.40
2023-09-11T20:56:05.820Z,9.13
2023-09-11T20:58:37.730Z,8.05
2023-09-11T21:01:10.248Z,7.10
2023-09-11T21:03:42.061Z,8.57
2023-09-11T21:06:13.917Z,6.68
2023-09-11T21:08:45.673Z,8.05
2023-09-11T21:11:23.968Z,12.18
2023-09-11T21:13:56.682Z,10.70
2023-09-11T21:16:29.080Z,9.57
2023-09-11T21:19:00.812Z,9.25
2023-09-11T21:21:32.819Z,9.60
2023-09-11T21:26:38.683Z,9.23
2023-09-11T21:29:11.819Z,14.45
2023-09-11T21:31:43.377Z,9.18
2023-09-11T21:34:14.967Z,10.55
2023-09-11T21:36:46.477Z,9.00
2023-09-11T21:39:18.081Z,6.70
2023-09-11T21:41:49.667Z,8.50
2023-09-11T21:44:21.209Z,10.75
2023-09-11T21:46:52.816Z,8.43
2023-09-11T21:49:24.429Z,10.70
2023-09-11T21:51:56.013Z,9.73
2023-09-11T21:54:28.045Z,8.95
2023-09-11T21:57:00.036Z,6.85
2023-09-11T21:59:32.972Z,8.48
2023-09-11T22:02:05.547Z,7.60
2023-09-11T22:04:37.454Z,6.72
2023-09-11T22:07:09.060Z,14.10
2023-09-11T22:09:40.638Z,9.60
2023-09-11T22:12:13.349Z,10.32
2023-09-11T22:14:46.698Z,7.97
2023-09-11T22:17:19.799Z,8.70
2023-09-11T22:19:51.401Z,7.10
2023-09-11T22:22:23.173Z,6.72
2023-09-11T22:24:54.907Z,7.07
2023-09-11T22:27:26.531Z,7.40
2023-09-11T22:29:58.159Z,7.18
2023-09-11T22:32:41.112Z,7.85
2023-09-11T22:35:20.816Z,7.78
2023-09-11T22:37:55.440Z,11.77
2023-09-11T22:40:26.973Z,11.20
2023-09-11T22:42:58.789Z,8.57
2023-09-11T22:45:30.314Z,9.30
2023-09-11T22:48:01.998Z,7.90
2023-09-11T22:50:35.650Z,7.03
2023-09-11T22:53:07.305Z,9.05
2023-09-11T22:55:39.451Z,6.57
2023-09-11T22:58:11.418Z,6.50
2023-09-11T23:03:14.416Z,8.05
2023-09-11T23:05:46.061Z,10.25
2023-09-11T23:08:17.648Z,7.30
2023-09-11T23:10:49.166Z,7.45
2023-09-11T23:13:20.724Z,8.05
2023-09-11T23:15:52.437Z,7.15
2023-09-11T23:18:24.100Z,6.97
2023-09-11T23:20:55.732Z,8.18
2023-09-11T23:23:36.960Z,9.73
2023-09-11T23:26:08.486Z,7.60
2023-09-11T23:28:40.377Z,7.13
2023-09-11T23:31:12.462Z,9.15
2023-09-11T23:33:44.221Z,9.32
2023-09-11T23:36:15.864Z,6.43
2023-09-11T23:38:47.457Z,10.23
2023-09-11T23:41:19.050Z,7.82
2023-09-11T23:43:50.662Z,6.38
2023-09-11T23:46:22.300Z,10.60
2023-09-11T23:48:54.108Z,7.45
2023-09-11T23:51:25.820Z,10.57
2023-09-11T23:53:57.677Z,6.85
2023-09-11T23:59:00.841Z,10.43
